Time;durP1;ratioP1;P1;durP2;ratioP2;P2;SDS_P1;SDS_P2;PMS_P1;PMS_P2;Temp;Humidity;BMP_temperature;BMP_pressure;BME280_temperature;BME280_humidity;BME280_pressure;Samples;Min_cycle;Max_cycle;Signal;HPM_P1;HPM_P2
2022/04/11 00:00:50;;;;;;;4.65;2.50;;;;;;;-145.70;100.00;64261.84;5039584;28;20049;-82
2022/04/11 00:03:16;;;;;;;5.15;2.65;;;;;;;-145.70;100.00;64261.84;5025703;28;20109;-82
2022/04/11 00:05:41;;;;;;;3.88;2.33;;;;;;;-145.70;100.00;64261.84;5043238;28;20041;-82
2022/04/11 00:08:07;;;;;;;4.93;2.50;;;;;;;-145.70;100.00;64261.84;5042702;28;20042;-82
2022/04/11 00:10:33;;;;;;;6.88;3.50;;;;;;;-145.70;100.00;64261.84;5039566;28;20119;-82
2022/04/11 00:13:06;;;;;;;5.65;3.13;;;;;;;-145.70;100.00;64261.84;5017027;28;20688;-83
2022/04/11 00:15:33;;;;;;;7.05;3.13;;;;;;;-145.70;100.00;64261.84;5039342;28;20064;-82
2022/04/11 00:18:01;;;;;;;9.35;2.70;;;;;;;-145.70;100.00;64261.84;5042526;28;20042;-81
2022/04/11 00:20:26;;;;;;;5.93;2.75;;;;;;;-145.70;100.00;64261.84;5039626;28;20046;-81
2022/04/11 00:22:52;;;;;;;5.93;2.88;;;;;;;-145.70;100.00;64261.84;5041407;28;20053;-82
2022/04/11 00:25:17;;;;;;;5.25;2.90;;;;;;;-145.70;100.00;64261.84;5046508;28;20044;-81
2022/04/11 00:27:42;;;;;;;5.93;2.78;;;;;;;-145.70;100.00;64261.84;5046695;28;20046;-81
2022/04/11 00:30:08;;;;;;;4.18;2.80;;;;;;;-145.70;100.00;64261.84;5031053;28;20030;-81
2022/04/11 00:32:40;;;;;;;7.85;2.78;;;;;;;-145.70;100.00;64261.84;5049135;28;20029;-81
2022/04/11 00:35:08;;;;;;;5.53;2.97;;;;;;;-145.70;100.00;64261.84;5045671;28;20255;-80
2022/04/11 00:37:34;;;;;;;3.95;2.70;;;;;;;-145.70;100.00;64261.84;5027165;28;20105;-81
2022/04/11 00:40:00;;;;;;;7.45;3.10;;;;;;;-145.70;100.00;64261.84;5045501;28;20048;-81
2022/04/11 00:42:28;;;;;;;5.55;2.83;;;;;;;-145.70;100.00;64261.84;5045407;28;20053;-82
2022/04/11 00:44:54;;;;;;;6.70;3.17;;;;;;;-145.70;100.00;64261.84;5043936;28;20042;-81
2022/04/11 00:47:19;;;;;;;6.65;3.08;;;;;;;-145.70;100.00;64261.84;5042121;28;20424;-82
2022/04/11 00:49:46;;;;;;;4.95;3.00;;;;;;;-145.70;100.00;64261.84;5034576;28;20053;-81
2022/04/11 00:52:12;;;;;;;5.70;3.33;;;;;;;-145.70;100.00;64261.84;5044429;28;20041;-83
2022/04/11 00:54:39;;;;;;;7.43;3.28;;;;;;;-145.70;100.00;64261.84;5011711;28;20126;-83
2022/04/11 00:57:05;;;;;;;8.02;3.75;;;;;;;-145.70;100.00;64261.84;5008283;28;20049;-83
2022/04/11 00:59:31;;;;;;;6.63;3.33;;;;;;;-145.70;100.00;64261.84;5012864;28;20412;-83
2022/04/11 01:01:56;;;;;;;6.63;3.28;;;;;;;-145.70;100.00;64261.84;5016061;28;20048;-83
2022/04/11 01:04:26;;;;;;;7.82;3.55;;;;;;;-145.70;100.00;64261.84;5032340;28;20045;-83
2022/04/11 01:06:56;;;;;;;7.00;3.67;;;;;;;-145.70;100.00;64261.84;5033563;28;20598;-83
2022/04/11 01:09:23;;;;;;;;;;;;;;;-145.70;100.00;64261.84;5000793;28;20129;-83
2022/04/11 01:11:48;;;;;;;6.55;3.90;;;;;;;-145.70;100.00;64261.84;5030404;28;20066;-84
2022/04/11 01:14:14;;;;;;;6.10;3.60;;;;;;;-145.70;100.00;64261.84;5032891;28;20042;-84
2022/04/11 01:16:39;;;;;;;6.35;3.53;;;;;;;-145.70;100.00;64261.84;5012963;28;20041;-83
2022/04/11 01:19:05;;;;;;;9.02;3.80;;;;;;;-145.70;100.00;64261.84;5030664;28;20042;-83
2022/04/11 01:21:33;;;;;;;5.53;3.60;;;;;;;-145.70;100.00;64261.84;5029917;28;20140;-83
2022/04/11 01:23:58;;;;;;;7.88;4.00;;;;;;;-145.70;100.00;64261.84;5029141;28;20034;-84
2022/04/11 01:26:26;;;;;;;6.35;3.72;;;;;;;-145.70;100.00;64261.84;5013522;28;20049;-84
2022/04/11 01:28:52;;;;;;;6.20;3.63;;;;;;;-145.70;100.00;64261.84;5035069;28;20067;-84
2022/04/11 01:31:18;;;;;;;7.65;3.53;;;;;;;-145.70;100.00;64261.84;5017835;28;20045;-83
2022/04/11 01:33:43;;;;;;;4.78;3.55;;;;;;;-145.70;100.00;64261.84;5037322;28;20052;-84
2022/04/11 01:36:08;;;;;;;9.02;4.15;;;;;;;-145.70;100.00;64261.84;5039916;28;20515;-83
2022/04/11 01:38:34;;;;;;;6.80;4.13;;;;;;;-145.70;100.00;64261.84;5014695;28;20133;-83
2022/04/11 01:40:59;;;;;;;7.68;4.25;;;;;;;-145.70;100.00;64261.84;5013964;28;20054;-83
2022/04/11 01:43:25;;;;;;;7.53;4.53;;;;;;;-145.70;100.00;64261.84;5030229;28;20046;-83
2022/04/11 01:45:51;;;;;;;9.88;4.25;;;;;;;-145.70;100.00;64261.84;5033350;28;20057;-83
2022/04/11 01:48:17;;;;;;;5.47;4.05;;;;;;;-145.70;100.00;64261.84;5008079;28;20038;-84
2022/04/11 01:50:42;;;;;;;8.45;4.28;;;;;;;-145.70;100.00;64261.84;5027636;28;20091;-83
2022/04/11 01:53:16;;;;;;;7.47;4.15;;;;;;;-145.70;100.00;64261.84;5033293;28;20051;-83
2022/04/11 01:55:42;;;;;;;7.90;4.22;;;;;;;-145.70;100.00;64261.84;5029109;28;20041;-84
2022/04/11 01:58:08;;;;;;;9.05;4.40;;;;;;;-145.70;100.00;64261.84;5011734;28;20048;-84
2022/04/11 02:00:34;;;;;;;8.15;4.45;;;;;;;-145.70;100.00;64261.84;5035410;28;20045;-83
2022/04/11 02:03:00;;;;;;;9.52;4.28;;;;;;;-145.70;100.00;64261.84;5030114;28;20084;-83
2022/04/11 02:05:26;;;;;;;10.27;4.60;;;;;;;-145.70;100.00;64261.84;5027113;28;20084;-84
2022/04/11 02:07:53;;;;;;;7.55;4.93;;;;;;;-145.70;100.00;64261.84;5030276;28;20390;-84
2022/04/11 02:10:18;;;;;;;9.73;5.00;;;;;;;-145.70;100.00;64261.84;5027672;28;20060;-83
2022/04/11 02:12:45;;;;;;;9.57;4.88;;;;;;;-145.70;100.00;64261.84;5027526;28;20038;-83
2022/04/11 02:15:11;;;;;;;8.50;4.75;;;;;;;-145.70;100.00;64261.84;5015300;28;20042;-83
2022/04/11 02:17:36;;;;;;;8.88;5.45;;;;;;;-145.70;100.00;64261.84;5033581;28;20586;-83
2022/04/11 02:20:03;;;;;;;9.23;4.85;;;;;;;-145.70;100.00;64261.84;5032050;28;20060;-83
2022/04/11 02:22:29;;;;;;;5.95;4.30;;;;;;;-145.70;100.00;64261.84;5030462;28;22047;-84
2022/04/11 02:24:55;;;;;;;8.75;4.90;;;;;;;-145.70;100.00;64261.84;5012349;28;20061;-84
2022/04/11 02:27:20;;;;;;;8.40;4.40;;;;;;;-145.70;100.00;64261.84;5037131;28;20076;-84
2022/04/11 02:29:45;;;;;;;7.97;4.43;;;;;;;-145.70;100.00;64261.84;5032282;28;20651;-84
2022/04/11 02:32:11;;;;;;;7.47;4.18;;;;;;;-145.70;100.00;64261.84;5003291;28;20445;-85
2022/04/11 02:34:36;;;;;;;7.75;4.03;;;;;;;-145.70;100.00;64261.84;5033853;28;20068;-84
2022/04/11 02:37:02;;;;;;;6.30;4.78;;;;;;;-145.70;100.00;64261.84;5030825;28;20060;-85
2022/04/11 02:39:27;;;;;;;7.78;4.72;;;;;;;-145.70;100.00;64261.84;5024115;28;20029;-84
2022/04/11 02:41:52;;;;;;;5.90;4.07;;;;;;;-145.70;100.00;64261.84;5005431;28;20432;-85
2022/04/11 02:44:18;;;;;;;8.38;4.97;;;;;;;-145.70;100.00;64261.84;5015308;28;20083;-85
2022/04/11 02:46:44;;;;;;;7.68;4.30;;;;;;;-145.70;100.00;64261.84;5009899;28;20211;-85
2022/04/11 02:49:10;;;;;;;8.07;4.68;;;;;;;-145.70;100.00;64261.84;5028948;28;20080;-85
2022/04/11 02:51:35;;;;;;;6.55;4.22;;;;;;;-145.70;100.00;64261.84;5008248;28;20069;-85
2022/04/11 02:54:07;;;;;;;6.55;4.60;;;;;;;-145.70;100.00;64261.84;5016324;28;20610;-85
2022/04/11 02:56:35;;;;;;;8.00;4.80;;;;;;;-145.70;100.00;64261.84;5024032;28;20042;-84
2022/04/11 02:59:00;;;;;;;9.57;4.97;;;;;;;-145.70;100.00;64261.84;5025853;28;20056;-84
2022/04/11 03:01:26;;;;;;;9.85;4.72;;;;;;;-145.70;100.00;64261.84;5011943;28;20517;-84
2022/04/11 03:03:51;;;;;;;7.38;4.50;;;;;;;-145.70;100.00;64261.84;5028228;28;20121;-84
2022/04/11 03:06:16;;;;;;;7.25;4.75;;;;;;;-145.70;100.00;64261.84;5037175;28;20116;-84
2022/04/11 03:08:42;;;;;;;10.10;4.95;;;;;;;-145.70;100.00;64261.84;5010929;28;20111;-84
2022/04/11 03:11:07;;;;;;;8.23;4.88;;;;;;;-145.70;100.00;64261.84;5026312;28;20083;-84
2022/04/11 03:13:33;;;;;;;8.15;5.03;;;;;;;-145.70;100.00;64261.84;5028464;28;20049;-83
2022/04/11 03:15:58;;;;;;;9.23;5.47;;;;;;;-145.70;100.00;64261.84;5028063;28;20042;-83
2022/04/11 03:18:23;;;;;;;8.77;5.45;;;;;;;-145.70;100.00;64261.84;5027071;28;20046;-84
2022/04/11 03:20:49;;;;;;;11.82;5.70;;;;;;;-145.70;100.00;64261.84;5027690;28;20038;-84
2022/04/11 03:23:15;;;;;;;7.88;5.35;;;;;;;-145.70;100.00;64261.84;5029245;28;20045;-84
2022/04/11 03:25:41;;;;;;;10.15;5.22;;;;;;;-145.70;100.00;64261.84;5010842;28;20527;-84
2022/04/11 03:28:07;;;;;;;12.93;6.03;;;;;;;-145.70;100.00;64261.84;5012044;28;20046;-84
2022/04/11 03:30:32;;;;;;;8.02;5.75;;;;;;;-145.70;100.00;64261.84;5031851;28;20496;-83
2022/04/11 03:32:57;;;;;;;10.20;6.10;;;;;;;-145.70;100.00;64261.84;5011091;28;20386;-84
2022/04/11 03:35:23;;;;;;;11.85;5.65;;;;;;;-145.70;100.00;64261.84;5028172;28;20049;-84
2022/04/11 03:37:49;;;;;;;8.05;5.50;;;;;;;-145.70;100.00;64261.84;5033589;28;20069;-83
2022/04/11 03:40:14;;;;;;;7.97;5.15;;;;;;;-145.70;100.00;64261.84;5024914;28;20038;-83
2022/04/11 03:42:39;;;;;;;8.90;5.18;;;;;;;-145.70;100.00;64261.84;5018752;28;20037;-84
2022/04/11 03:45:08;;;;;;;10.23;6.40;;;;;;;-145.70;100.00;64261.84;5031251;28;20162;-84
2022/04/11 03:47:33;;;;;;;10.23;6.28;;;;;;;-145.70;100.00;64261.84;5030480;28;20523;-84
2022/04/11 03:49:59;;;;;;;9.00;5.50;;;;;;;-145.70;100.00;64261.84;5024181;28;20041;-84
2022/04/11 03:52:25;;;;;;;11.25;5.53;;;;;;;-145.70;100.00;64261.84;5025913;28;20046;-84
2022/04/11 03:54:50;;;;;;;11.43;6.22;;;;;;;-145.70;100.00;64261.84;5023863;28;20389;-85
2022/04/11 03:57:15;;;;;;;8.77;5.57;;;;;;;-145.70;100.00;64261.84;5009515;28;20131;-85
2022/04/11 03:59:41;;;;;;;8.52;5.55;;;;;;;-145.70;100.00;64261.84;5023121;28;20065;-85
2022/04/11 04:02:06;;;;;;;9.07;4.72;;;;;;;-145.70;100.00;64261.84;5012115;28;20049;-85
2022/04/11 04:04:32;;;;;;;9.60;5.90;;;;;;;-145.70;100.00;64261.84;5013740;28;20041;-86
2022/04/11 04:06:57;;;;;;;10.25;5.72;;;;;;;-145.70;100.00;64261.84;5009033;28;20042;-86
2022/04/11 04:09:22;;;;;;;10.00;6.07;;;;;;;-145.70;100.00;64261.84;5009406;28;20049;-86
2022/04/11 04:11:48;;;;;;;9.45;5.80;;;;;;;-145.70;100.00;64261.84;5027162;28;20041;-86
2022/04/11 04:14:13;;;;;;;10.45;5.80;;;;;;;-145.70;100.00;64261.84;5025305;28;20072;-85
2022/04/11 04:16:38;;;;;;;9.52;5.88;;;;;;;-145.70;100.00;64261.84;5024609;28;20119;-85
2022/04/11 04:19:03;;;;;;;8.35;5.28;;;;;;;-145.70;100.00;64261.84;5029219;28;20194;-86
2022/04/11 04:21:29;;;;;;;10.05;6.32;;;;;;;-145.70;100.00;64261.84;5010779;28;20076;-86
2022/04/11 04:23:54;;;;;;;9.57;6.15;;;;;;;-145.70;100.00;64261.84;5009107;28;20091;-86
2022/04/11 04:26:20;;;;;;;13.65;7.03;;;;;;;-145.70;100.00;64261.84;5007003;28;20041;-85
2022/04/11 04:28:45;;;;;;;8.85;6.13;;;;;;;-145.70;100.00;64261.84;5010061;28;20423;-85
2022/04/11 04:31:10;;;;;;;11.77;6.65;;;;;;;-145.70;100.00;64261.84;5026847;28;20118;-86
2022/04/11 04:33:36;;;;;;;10.52;6.43;;;;;;;-145.70;100.00;64261.84;5024784;28;20057;-85
2022/04/11 04:36:01;;;;;;;12.30;6.47;;;;;;;-145.70;100.00;64261.84;5006586;28;20042;-85
2022/04/11 04:38:27;;;;;;;9.00;6.25;;;;;;;-145.70;100.00;64261.84;5021097;28;20045;-86
2022/04/11 04:40:52;;;;;;;10.15;6.18;;;;;;;-145.70;100.00;64261.84;5028397;28;20282;-85
2022/04/11 04:43:17;;;;;;;9.85;6.75;;;;;;;-145.70;100.00;64261.84;5042983;28;20045;-85
2022/04/11 04:45:43;;;;;;;10.70;6.80;;;;;;;-145.70;100.00;64261.84;5020909;28;20048;-86
2022/04/11 04:48:08;;;;;;;11.48;6.95;;;;;;;-145.70;100.00;64261.84;5038627;28;20052;-85
2022/04/11 04:50:34;;;;;;;10.55;5.88;;;;;;;-145.70;100.00;64261.84;5017166;28;20129;-85
2022/04/11 04:52:59;;;;;;;11.45;7.05;;;;;;;-145.70;100.00;64261.84;5031813;28;20041;-86
2022/04/11 04:55:24;;;;;;;12.77;6.57;;;;;;;-145.70;100.00;64261.84;5006847;28;20049;-85
2022/04/11 04:57:50;;;;;;;10.88;6.95;;;;;;;-145.70;100.00;64261.84;5007426;28;20116;-85
2022/04/11 05:00:16;;;;;;;10.63;6.97;;;;;;;-145.70;100.00;64261.84;5010733;28;20512;-85
2022/04/11 05:02:43;;;;;;;13.68;8.13;;;;;;;-145.70;100.00;64261.84;5014031;28;20049;-84
2022/04/11 05:05:10;;;;;;;10.25;7.70;;;;;;;-145.70;100.00;64261.84;5033786;28;20030;-84
2022/04/11 05:07:35;;;;;;;12.52;7.57;;;;;;;-145.70;100.00;64261.84;5028963;28;20052;-84
2022/04/11 05:10:02;;;;;;;13.68;7.70;;;;;;;-145.70;100.00;64261.84;5027899;28;20045;-85
2022/04/11 05:12:28;;;;;;;11.57;7.18;;;;;;;-145.70;100.00;64261.84;5030039;28;20054;-85
2022/04/11 05:14:53;;;;;;;10.95;7.32;;;;;;;-145.70;100.00;64261.84;5009412;28;20512;-85
2022/04/11 05:17:19;;;;;;;13.32;7.82;;;;;;;-145.70;100.00;64261.84;5010422;28;20049;-84
2022/04/11 05:19:44;;;;;;;11.95;8.00;;;;;;;-145.70;100.00;64261.84;5012134;28;20068;-84
2022/04/11 05:22:09;;;;;;;12.93;8.52;;;;;;;-145.70;100.00;64261.84;5009607;28;20044;-84
2022/04/11 05:24:35;;;;;;;11.95;8.02;;;;;;;-145.70;100.00;64261.84;5031662;28;20037;-84
2022/04/11 05:27:00;;;;;;;14.98;8.35;;;;;;;-145.70;100.00;64261.84;5012004;28;20052;-84
2022/04/11 05:29:25;;;;;;;15.05;8.15;;;;;;;-145.70;100.00;64261.84;5012620;28;20048;-85
2022/04/11 05:31:51;;;;;;;13.88;7.82;;;;;;;-145.70;100.00;64261.84;5012468;28;20044;-85
2022/04/11 05:34:16;;;;;;;13.35;8.00;;;;;;;-145.70;100.00;64261.84;5010223;28;20571;-84
2022/04/11 05:36:41;;;;;;;9.98;7.20;;;;;;;-145.70;100.00;64261.84;5029946;28;20037;-84
2022/04/11 05:39:07;;;;;;;10.77;7.20;;;;;;;-145.70;100.00;64261.84;5030321;28;20048;-84
2022/04/11 05:41:32;;;;;;;9.93;7.95;;;;;;;-145.70;100.00;64261.84;5030724;28;20045;-84
2022/04/11 05:43:57;;;;;;;12.00;8.00;;;;;;;-145.70;100.00;64261.84;5012719;28;20042;-84
2022/04/11 05:46:23;;;;;;;12.75;7.97;;;;;;;-145.70;100.00;64261.84;5024693;28;20160;-84
2022/04/11 05:48:48;;;;;;;13.50;8.48;;;;;;;-145.70;100.00;64261.84;5012139;28;20124;-84
2022/04/11 05:51:13;;;;;;;10.48;7.65;;;;;;;-145.70;100.00;64261.84;5008539;28;20084;-84
2022/04/11 05:53:40;;;;;;;10.82;8.30;;;;;;;-145.70;100.00;64261.84;5013299;28;20132;-84
2022/04/11 05:56:05;;;;;;;11.05;7.78;;;;;;;-145.70;100.00;64261.84;5008703;28;20042;-84
2022/04/11 05:58:30;;;;;;;12.75;7.10;;;;;;;-145.70;100.00;64261.84;5029166;28;20053;-84
2022/04/11 06:00:56;;;;;;;14.65;7.45;;;;;;;-145.70;100.00;64261.84;5006704;28;20054;-85
2022/04/11 06:03:21;;;;;;;13.50;7.30;;;;;;;-145.70;100.00;64261.84;5015741;28;20045;-84
2022/04/11 06:05:46;;;;;;;12.98;7.53;;;;;;;-145.70;100.00;64261.84;5031575;28;20056;-84
2022/04/11 06:08:12;;;;;;;14.05;7.63;;;;;;;-145.70;100.00;64261.84;5029061;28;20175;-85
2022/04/11 06:10:38;;;;;;;15.88;7.45;;;;;;;-145.70;100.00;64261.84;5011977;28;20048;-84
2022/04/11 06:13:04;;;;;;;11.60;7.43;;;;;;;-145.70;100.00;64261.84;5011807;28;20041;-85
2022/04/11 06:15:29;;;;;;;8.82;7.05;;;;;;;-145.70;100.00;64261.84;5037223;28;20046;-85
2022/04/11 06:17:54;;;;;;;11.70;7.63;;;;;;;-145.70;100.00;64261.84;5017489;28;20048;-85
2022/04/11 06:20:20;;;;;;;13.80;8.07;;;;;;;-145.70;100.00;64261.84;5012081;28;20128;-85
2022/04/11 06:22:46;;;;;;;14.75;6.53;;;;;;;-145.70;100.00;64261.84;5011502;28;20080;-86
2022/04/11 06:25:12;;;;;;;13.40;7.25;;;;;;;-145.70;100.00;64261.84;5014906;28;20132;-85
2022/04/11 06:27:38;;;;;;;11.82;7.53;;;;;;;-145.70;100.00;64261.84;5027888;28;20044;-85
2022/04/11 06:30:05;;;;;;;10.18;7.25;;;;;;;-145.70;100.00;64261.84;5045435;28;20151;-83
2022/04/11 06:32:32;;;;;;;11.65;7.30;;;;;;;-145.70;100.00;64261.84;5028098;28;20056;-85
2022/04/11 06:34:58;;;;;;;10.13;7.38;;;;;;;-145.70;100.00;64261.84;5053134;28;20065;-84
2022/04/11 06:37:24;;;;;;;10.20;7.03;;;;;;;-145.70;100.00;64261.84;5017216;28;20038;-84
2022/04/11 06:39:51;;;;;;;9.85;7.35;;;;;;;-145.70;100.00;64261.84;5014275;28;20060;-85
2022/04/11 06:42:17;;;;;;;13.77;7.35;;;;;;;-145.70;100.00;64261.84;5013133;28;20045;-86
2022/04/11 06:44:43;;;;;;;10.40;7.03;;;;;;;-145.70;100.00;64261.84;5030375;28;20053;-85
2022/04/11 06:47:09;;;;;;;11.48;7.50;;;;;;;-145.70;100.00;64261.84;5029673;28;20041;-84
2022/04/11 06:49:38;;;;;;;12.18;7.03;;;;;;;-145.70;100.00;64261.84;5012352;28;20124;-85
2022/04/11 06:52:05;;;;;;;14.68;7.68;;;;;;;-145.70;100.00;64261.84;5011175;28;20040;-84
2022/04/11 06:54:31;;;;;;;9.32;6.93;;;;;;;-145.70;100.00;64261.84;5011684;28;20281;-85
2022/04/11 06:56:57;;;;;;;10.30;6.05;;;;;;;-145.70;100.00;64261.84;5028100;28;20061;-84
2022/04/11 06:59:22;;;;;;;10.55;6.38;;;;;;;-145.70;100.00;64261.84;5029037;28;20069;-84
2022/04/11 07:01:48;;;;;;;10.30;6.25;;;;;;;-145.70;100.00;64261.84;5028713;28;20052;-85
2022/04/11 07:04:13;;;;;;;11.50;6.82;;;;;;;-145.70;100.00;64261.84;5012257;28;20052;-85
2022/04/11 07:06:38;;;;;;;14.15;6.85;;;;;;;-145.70;100.00;64261.84;5021241;28;20174;-85
2022/04/11 07:09:04;;;;;;;11.18;6.43;;;;;;;-145.70;100.00;64261.84;5024941;28;20045;-84
2022/04/11 07:11:31;;;;;;;8.48;6.30;;;;;;;-145.70;100.00;64261.84;5014542;28;20045;-84
2022/04/11 07:13:56;;;;;;;10.02;7.20;;;;;;;-145.70;100.00;64261.84;5007676;28;20041;-83
2022/04/11 07:16:23;;;;;;;7.90;5.95;;;;;;;-145.70;100.00;64261.84;5028172;28;20048;-85
2022/04/11 07:18:49;;;;;;;10.57;6.80;;;;;;;-145.70;100.00;64261.84;5011420;28;20053;-83
2022/04/11 07:21:14;;;;;;;9.10;6.10;;;;;;;-145.70;100.00;64261.84;5013160;28;20463;-83
2022/04/11 07:23:40;;;;;;;12.82;7.30;;;;;;;-145.70;100.00;64261.84;5009466;28;20045;-85
2022/04/11 07:26:05;;;;;;;9.25;6.18;;;;;;;-145.70;100.00;64261.84;5040738;28;20525;-84
2022/04/11 07:28:30;;;;;;;11.02;6.25;;;;;;;-145.70;100.00;64261.84;5006984;28;20047;-85
2022/04/11 07:30:56;;;;;;;8.57;5.95;;;;;;;-145.70;100.00;64261.84;5028740;28;20037;-84
2022/04/11 07:33:21;;;;;;;9.60;6.35;;;;;;;-145.70;100.00;64261.84;5011266;28;20041;-82
2022/04/11 07:35:46;;;;;;;9.88;5.90;;;;;;;-145.70;100.00;64261.84;5031650;28;20052;-85
2022/04/11 07:38:12;;;;;;;9.90;5.88;;;;;;;-145.70;100.00;64261.84;5025280;28;20164;-83
2022/04/11 07:40:37;;;;;;;8.95;4.95;;;;;;;-145.70;100.00;64261.84;5028421;28;20045;-85
2022/04/11 07:43:08;;;;;;;8.80;5.40;;;;;;;-145.70;100.00;64261.84;5007785;28;20460;-85
2022/04/11 07:45:37;;;;;;;7.60;5.00;;;;;;;-145.70;100.00;64261.84;5010839;28;20120;-86
2022/04/11 07:48:03;;;;;;;9.00;4.67;;;;;;;-145.70;100.00;64261.84;5009905;28;20056;-84
2022/04/11 07:50:28;;;;;;;8.02;4.40;;;;;;;-145.70;100.00;64261.84;5009748;28;20280;-85
2022/04/11 07:52:53;;;;;;;6.55;4.07;;;;;;;-145.70;100.00;64261.84;5009541;28;20046;-85
2022/04/11 07:55:19;;;;;;;10.00;4.72;;;;;;;-145.70;100.00;64261.84;5015692;28;20088;-84
2022/04/11 07:57:44;;;;;;;9.07;4.75;;;;;;;-145.70;100.00;64261.84;5031884;28;20030;-84
2022/04/11 08:00:10;;;;;;;7.15;4.47;;;;;;;-145.70;100.00;64261.84;5009131;28;20046;-85
2022/04/11 08:02:36;;;;;;;6.60;4.13;;;;;;;-145.70;100.00;64261.84;5010291;28;20110;-85
2022/04/11 08:05:03;;;;;;;7.07;4.40;;;;;;;-145.70;100.00;64261.84;5009489;28;20044;-86
2022/04/11 08:07:35;;;;;;;6.78;3.90;;;;;;;-145.70;100.00;64261.84;5028298;28;20557;-85
2022/04/11 08:10:05;;;;;;;7.18;4.53;;;;;;;-145.70;100.00;64261.84;5029368;28;20048;-84
2022/04/11 08:12:30;;;;;;;8.82;4.47;;;;;;;-145.70;100.00;64261.84;5011162;28;20060;-85
2022/04/11 08:14:56;;;;;;;7.95;4.60;;;;;;;-145.70;100.00;64261.84;5008742;28;20041;-84
2022/04/11 08:17:21;;;;;;;6.18;4.03;;;;;;;-145.70;100.00;64261.84;5031880;28;20048;-84
2022/04/11 08:19:47;;;;;;;6.45;4.53;;;;;;;-145.70;100.00;64261.84;5029382;28;20052;-84
2022/04/11 08:22:12;;;;;;;8.15;4.95;;;;;;;-145.70;100.00;64261.84;5005125;28;20038;-84
2022/04/11 08:24:38;;;;;;;8.60;5.25;;;;;;;-145.70;100.00;64261.84;5006141;28;20041;-84
2022/04/11 08:27:03;;;;;;;8.15;5.15;;;;;;;-145.70;100.00;64261.84;4996602;28;20056;-83
2022/04/11 08:29:29;;;;;;;10.88;5.10;;;;;;;-145.70;100.00;64261.84;5003591;28;20053;-85
2022/04/11 08:31:54;;;;;;;6.95;4.30;;;;;;;-145.70;100.00;64261.84;5001395;28;20052;-85
2022/04/11 08:34:19;;;;;;;8.00;4.53;;;;;;;-145.70;100.00;64261.84;5005983;28;20041;-85
2022/04/11 08:36:45;;;;;;;7.93;4.22;;;;;;;-145.70;100.00;64261.84;5026982;28;20064;-83
2022/04/11 08:39:11;;;;;;;12.77;4.43;;;;;;;-145.70;100.00;64261.84;5008347;28;20064;-85
2022/04/11 08:41:37;;;;;;;7.85;4.45;;;;;;;-145.70;100.00;64261.84;5006154;28;20075;-85
2022/04/11 08:44:05;;;;;;;8.45;4.53;;;;;;;-145.70;100.00;64261.84;5023618;28;20041;-84
2022/04/11 08:46:31;;;;;;;6.85;4.65;;;;;;;-145.70;100.00;64261.84;5011319;28;20044;-86
2022/04/11 08:48:58;;;;;;;9.63;4.22;;;;;;;-145.70;100.00;64261.84;5011705;28;20489;-85
2022/04/11 08:51:24;;;;;;;7.40;3.67;;;;;;;-145.70;100.00;64261.84;5027541;28;20053;-83
2022/04/11 08:53:50;;;;;;;7.22;3.20;;;;;;;-145.70;100.00;64261.84;5012777;28;20140;-85
2022/04/11 08:56:16;;;;;;;9.68;3.67;;;;;;;-145.70;100.00;64261.84;5024989;28;20054;-85
2022/04/11 08:58:41;;;;;;;8.15;3.72;;;;;;;-145.70;100.00;64261.84;5010539;28;20067;-84
2022/04/11 09:01:06;;;;;;;7.80;3.40;;;;;;;-145.70;100.00;64261.84;5024707;28;20057;-86
2022/04/11 09:03:32;;;;;;;5.78;3.72;;;;;;;-145.70;100.00;64261.84;5009987;28;20042;-84
2022/04/11 09:06:08;;;;;;;7.85;3.80;;;;;;;-145.70;100.00;64261.84;5027434;28;20041;-86
2022/04/11 09:09:00;;;;;;;7.53;4.28;;;;;;;-145.70;100.00;64261.84;5027577;28;20104;-85
2022/04/11 09:11:35;;;;;;;8.45;3.80;;;;;;;-145.70;100.00;64261.84;4989886;28;20115;-85
2022/04/11 09:14:05;;;;;;;5.38;3.53;;;;;;;-145.70;100.00;64261.84;5026026;28;20046;-85
2022/04/11 09:16:48;;;;;;;6.55;3.95;;;;;;;-145.70;100.00;64261.84;5027519;28;20052;-85
2022/04/11 09:19:24;;;;;;;4.53;3.50;;;;;;;-145.70;100.00;64261.84;5028329;28;20402;-85
2022/04/11 09:21:50;;;;;;;5.53;3.88;;;;;;;-145.70;100.00;64261.84;5033338;28;20041;-85
2022/04/11 09:24:19;;;;;;;8.15;4.10;;;;;;;-145.70;100.00;64261.84;5028287;28;20065;-85
2022/04/11 09:26:45;;;;;;;5.82;3.60;;;;;;;-145.70;100.00;64261.84;5022745;28;20132;-85
2022/04/11 09:29:12;;;;;;;7.43;4.10;;;;;;;-145.70;100.00;64261.84;5027320;28;20053;-85
2022/04/11 09:31:38;;;;;;;7.22;4.25;;;;;;;-145.70;100.00;64261.84;5026795;28;20049;-85
2022/04/11 09:34:18;;;;;;;7.32;4.03;;;;;;;-145.70;100.00;64261.84;5009942;28;20135;-86
2022/04/11 09:36:57;;;;;;;7.40;3.90;;;;;;;-145.70;100.00;64261.84;5029815;28;20160;-86
2022/04/11 09:39:28;;;;;;;5.38;3.38;;;;;;;-145.70;100.00;64261.84;5006428;28;20045;-84
2022/04/11 09:41:54;;;;;;;6.63;4.07;;;;;;;-145.70;100.00;64261.84;5030434;28;20041;-85
2022/04/11 09:44:25;;;;;;;7.68;4.22;;;;;;;-145.70;100.00;64261.84;5011105;28;20257;-84
2022/04/11 09:46:53;;;;;;;5.93;4.00;;;;;;;-145.70;100.00;64261.84;5012101;28;20110;-86
2022/04/11 09:49:19;;;;;;;9.73;4.20;;;;;;;-145.70;100.00;64261.84;5009431;28;20046;-85
2022/04/11 09:52:09;;;;;;;5.70;4.00;;;;;;;-145.70;100.00;64261.84;5012019;28;20057;-84
2022/04/11 09:54:39;;;;;;;5.63;3.97;;;;;;;-145.70;100.00;64261.84;5003617;28;20054;-86
2022/04/11 09:57:06;;;;;;;8.10;3.78;;;;;;;-145.70;100.00;64261.84;5004525;28;20398;-85
2022/04/11 09:59:33;;;;;;;8.82;3.90;;;;;;;-145.70;100.00;64261.84;5004999;28;20060;-86
2022/04/11 10:01:59;;;;;;;8.98;4.15;;;;;;;-145.70;100.00;64261.84;5024680;28;20053;-85
2022/04/11 10:04:27;;;;;;;7.22;4.00;;;;;;;-145.70;100.00;64261.84;5008824;28;20211;-84
2022/04/11 10:06:53;;;;;;;6.87;3.90;;;;;;;-145.70;100.00;64261.84;5007161;28;20038;-85
2022/04/11 10:09:21;;;;;;;6.93;4.03;;;;;;;-145.70;100.00;64261.84;5029734;28;20056;-86
2022/04/11 10:11:47;;;;;;;6.95;4.20;;;;;;;-145.70;100.00;64261.84;5017505;28;20938;-86
2022/04/11 10:14:23;;;;;;;6.95;3.88;;;;;;;-145.70;100.00;64261.84;5033508;28;20041;-85
2022/04/11 10:16:51;;;;;;;6.70;4.18;;;;;;;-145.70;100.00;64261.84;5014447;28;20151;-84
2022/04/11 10:19:21;;;;;;;6.45;3.95;;;;;;;-145.70;100.00;64261.84;5030318;28;20050;-85
2022/04/11 10:21:48;;;;;;;6.35;4.47;;;;;;;-145.70;100.00;64261.84;5013557;28;20042;-85
2022/04/11 10:24:33;;;;;;;8.23;4.72;;;;;;;-145.70;100.00;64261.84;5009506;28;20504;-86
2022/04/11 10:27:17;;;;;;;7.78;4.72;;;;;;;-145.70;100.00;64261.84;5004695;28;20452;-86
2022/04/11 10:29:43;;;;;;;8.00;5.07;;;;;;;-145.70;100.00;64261.84;5009521;28;20100;-86
2022/04/11 10:32:08;;;;;;;6.70;4.22;;;;;;;-145.70;100.00;64261.84;5025963;28;20397;-86
2022/04/11 10:34:53;;;;;;;5.78;4.07;;;;;;;-145.70;100.00;64261.84;5010543;28;20053;-85
2022/04/11 10:37:20;;;;;;;7.43;4.90;;;;;;;-145.70;100.00;64261.84;5002931;28;20057;-86
2022/04/11 10:39:46;;;;;;;10.18;4.85;;;;;;;-145.70;100.00;64261.84;5021435;28;20124;-86
2022/04/11 10:42:13;;;;;;;6.47;4.57;;;;;;;-145.70;100.00;64261.84;5000756;28;20046;-86
2022/04/11 10:44:54;;;;;;;8.68;4.85;;;;;;;-145.70;100.00;64261.84;5008352;28;20088;-87
2022/04/11 10:47:31;;;;;;;7.38;4.53;;;;;;;-145.70;100.00;64261.84;5026639;28;20041;-87
2022/04/11 10:50:01;;;;;;;8.90;5.20;;;;;;;-145.70;100.00;64261.84;5024682;28;20440;-86
2022/04/11 10:52:33;;;;;;;5.90;4.88;;;;;;;-145.70;100.00;64261.84;5001309;28;20104;-86
2022/04/11 10:55:07;;;;;;;6.70;4.68;;;;;;;-145.70;100.00;64261.84;5003798;28;20129;-86
2022/04/11 10:57:33;;;;;;;8.40;4.63;;;;;;;-145.70;100.00;64261.84;5005851;28;20054;-87
2022/04/11 11:00:09;;;;;;;6.40;4.35;;;;;;;-145.70;100.00;64261.84;5002710;28;20052;-87
2022/04/11 11:02:52;;;;;;;;;;;;;;;;;;;;;
2022/04/11 11:05:32;;;;;;;9.65;5.00;;;;;;;-145.70;100.00;64261.84;5023379;28;20489;-86
2022/04/11 11:08:13;;;;;;;6.68;4.35;;;;;;;-145.70;100.00;64261.84;5008582;28;20049;-86